x

Santa Monica Basin - 33nm Wsw Of Santa Monica, Ca (46025) Weather Station

6:10 - Sun 30th Apr 2017 All times are PDT. -7 hours from GMT.

  • Wind
    4mph, 7mph gusts
  • Sea Temp 59°f
  • Aire Temp 58°f
  • Sea Pressure 1016.6mb
  • Santa Monica Basin - 33nm Wsw Of Santa Monica, Ca
  • Santa Monica Basin - 33nm Wsw Of Santa Monica, Ca

More Historic Weather Station data

Upgrade to MSW Pro to gain access to the past 30 days of data for over 8000 Wavebouys and Weather Stations around the globe.

Join Pro

Comparision Forecast

View Surf forecast
   
dom 04/30 6:10  -   -   -  4 7 mph 1016.6mb 59f 58f
6:00  -   -   -  4 7 mph 1016.5mb - 59f
5:50 3.5ft 9s 6s 7 9 mph 1016.6mb 59f 59f
5:40 3.5ft  -  6s 7 9 mph 1016.5mb 59f 59f
5:30  -   -   -  7 9 mph 1016.6mb 59f 59f
5:20  -   -   -  7 9 mph 1016.6mb 59f 59f
5:10  -   -   -  7 9 mph 1016.6mb 59f 59f
5:00  -   -   -  7 9 mph 1016.6mb 59f 59f
4:50 3.5ft 11s 6s 9
mph
1016.6mb 59f 59f
4:40 3.5ft  -  6s 9 11 mph 1016.6mb 59f 59f
4:30  -   -   -  9 11 mph 1016.6mb 59f 59f
4:20  -   -   -  11 13 mph 1016.8mb 59f 59f
4:10  -   -   -  9 11 mph 1016.9mb 60f 60f
4:00  -   -   -  11 13 mph 1016.8mb 60f 60f
3:50 3.5ft 11s 6s 11 13 mph 1016.8mb 60f 60f
3:40  -   -   -  7 9 mph 1016.9mb 60f 61f
3:30  -   -   -  7 9 mph 1017mb 60f 61f
3:20  -   -   -  9 11 mph 1017mb 60f 61f
3:10  -   -   -  9 11 mph 1017mb 60f 61f
3:00  -   -   -  7 9 mph 1017mb 60f 62f
2:50 3.5ft 11s 6s 7 9 mph 1017mb 60f 62f
2:40 3.5ft  -  6s 9 11 mph 1016.8mb 60f 62f
2:30  -   -   -  9 11 mph 1016.6mb 60f 62f
2:20  -   -   -  9 11 mph 1016.9mb 60f 62f
2:10  -   -   -  11 13 mph 1016.8mb 60f 62f
2:00  -   -   -  11 13 mph 1016.8mb 60f 62f
1:50 4ft 11s 6s 11 16 mph 1016.8mb 60f 62f
1:40 4ft  -  6s 13 18 mph 1017mb 60f 63f
1:30  -   -   -  13 18 mph 1016.9mb 60f 63f
1:20  -   -   -  11 16 mph 1017mb 60f 63f
1:10  -   -   -  13 16 mph 1017mb 60f 63f
1:00  -   -   -  13 18 mph 1017mb 60f 63f
12:50 4ft 11s 6s 13 16 mph 1017.1mb 60f 63f
12:40 4ft  -  6s 13 16 mph 1017.3mb 60f 62f
12:30  -   -   -  13 16 mph 1017.3mb 60f 62f
12:20  -   -   -  13 16 mph 1017.3mb 60f 62f
12:10  -   -   -  13 16 mph 1017.1mb 60f 61f
12:00  -   -   -  13 16 mph 1017mb 60f 61f
sáb 04/29 11:50 4ft 11s 6s 11 16 mph 1017mb 60f 61f
11:40 4ft  -  6s 11 13 mph 1017mb 60f 60f
11:30  -   -   -  11 13 mph 1017mb 60f 60f
11:20  -   -   -  11 13 mph 1017mb 60f 60f
11:10  -   -   -  11 16 mph 1017mb 61f 60f
11:00  -   -   -  11 13 mph 1017.1mb - 60f
10:50 3.5ft 5s 6s 11 13 mph 1017.3mb 61f 60f
10:40 3.5ft  -  6s 11 13 mph 1017.1mb 61f 61f
10:30  -   -   -  9 11 mph 1017.1mb 61f 61f
10:20  -   -   -  9 11 mph 1017.3mb 61f 60f
10:10  -   -   -  9 11 mph 1017mb 61f 61f
10:00  -   -   -  7 9 mph 1017.3mb 61f 61f
9:50 4ft 11s 6s 9 11 mph 1017.1mb 61f 61f
9:40 4ft  -  6s 4 11 mph 1017mb 61f 61f
9:30  -   -   -  2 4 mph 1017mb 61f 62f
9:20  -   -   -  4
mph
1016.8mb 61f 62f
9:10  -   -   -  4 7 mph 1016.9mb 61f 62f
9:00  -   -   -  2 4 mph 1016.8mb 61f 62f
8:50 4ft 12s 6s 4 7 mph 1016.8mb 61f 62f
8:40  -   -   -  2 4 mph 1016.5mb 61f 62f
8:30  -   -   -  2 4 mph 1016.5mb 61f 62f
8:20  -   -   -  4 7 mph 1016.3mb 61f 62f
8:10  -   -   -  2 4 mph 1016.5mb 62f 62f
8:00  -   -   -  4 7 mph 1016.1mb 61f 62f
7:50 4ft 12s 6s 7 9 mph 1016.1mb 62f 62f
7:40  -   -   -  4 7 mph 1016.1mb 62f 62f
7:30  -   -   -  9 11 mph 1016mb 62f 62f
7:20  -   -   -  9 11 mph 1015.9mb 62f 62f
7:10  -   -   -  9 11 mph 1016mb 62f 63f
7:00  -   -   -  9 11 mph 1016mb 62f 63f
6:10  -   -   -  9 11 mph 1016mb 62f 64f
6:00  -   -   -  7 9 mph 1016.6mb 62f 64f
5:50 4ft 11s 6s 7 11 mph 1016mb 62f 64f
5:40 4ft  -  6s 7 9 mph 1016mb 62f 64f
5:30  -   -   -  4 7 mph 1016mb 62f 64f
5:20  -   -   -  7 9 mph 1016mb 62f 64f
5:10  -   -   -  9
mph
1016mb 62f 63f
5:00  -   -   -  9 11 mph 1015.9mb 62f 63f
4:50 3.5ft 10s 6s 9 11 mph 1016mb 62f 64f
4:40 3.5ft  -  6s 11 13 mph 1015.9mb 62f 63f
4:30  -   -   -  11 13 mph 1016mb 62f 63f
4:20  -   -   -  11 13 mph 1016mb 62f 63f
4:10  -   -   -  9 11 mph 1016mb - 63f
4:00  -   -   -  9 13 mph 1016mb 62f 63f
3:50 4ft 11s 6s 11 13 mph 1016.1mb 62f 63f
3:40 4ft  -  6s 13 16 mph 1016.1mb 62f 63f
3:30  -   -   -  13 16 mph 1016.4mb 62f 63f
3:20  -   -   -  11 16 mph 1016.3mb 62f 63f
3:10  -   -   -  13 16 mph 1016.3mb 62f 64f
3:00  -   -   -  13 16 mph 1016.4mb 62f 64f
2:50 4ft 12s 6s 11 16 mph 1016.4mb 62f 64f
2:40 4ft  -  6s 9 11 mph 1016.5mb 62f 65f
2:30  -   -   -  9 13 mph 1016.4mb 62f 64f
2:20  -   -   -  9 11 mph 1016.5mb 62f 64f
2:10  -   -   -  9 11 mph 1016.5mb 62f 64f
2:00  -   -   -  9 11 mph 1016.4mb 62f 65f
1:50 4.5ft 13s 6s 9 13 mph 1016.5mb 61f 65f
1:40 4.5ft  -  6s 11 13 mph 1016.5mb 61f 65f
1:30  -   -   -  9 11 mph 1016.4mb 61f 66f
1:20  -   -   -  7 9 mph 1016.4mb 61f 67f
1:10  -   -   -  7 9 mph 1016.5mb 61f 66f
1:00  -   -   -  4 7 mph 1016.5mb 61f 66f
12:50 4.5ft 9s 6s 2 4 mph 1016.5mb 61f 66f
12:40  -   -   -  2 4 mph 1016.5mb 61f 67f
12:30  -   -   -  2
mph
1016.6mb 61f 67f
12:20  -   -   -  2 4 mph 1016.8mb 61f 66f
12:10  -   -   -  2 4 mph 1016.8mb 61f 65f
12:00  -   -   -   -  2 mph 1017mb - 66f
11:50 5ft 12s 6s  -  2 mph 1016.9mb 60f 67f
11:40 5ft  -  6s 2
mph
1017mb 60f 67f
11:30  -   -   -  4 7 mph 1017mb 60f 66f
11:20  -   -   -  7 9 mph 1017mb 60f 67f
11:10  -   -   -  9 13 mph 1017mb 60f 67f
11:00  -   -   -  9 13 mph 1016.9mb 60f 67f
10:50 5ft 13s 5s 9 11 mph 1016.9mb 60f 66f
10:40 5ft  -  5s 9 13 mph 1016.8mb 60f 65f
10:30  -   -   -  11 16 mph 1016.8mb 60f 66f
10:20  -   -   -  13 18 mph 1016.5mb 60f 66f
10:10  -   -   -  13 18 mph 1016.5mb 60f 67f
10:00  -   -   -  16 18 mph 1016.5mb 60f 66f
9:50 5ft 9s 5s 13 22 mph 1016.5mb 60f 66f
9:40  -   -   -  9 13 mph 1016.4mb 60f 65f
9:30  -   -   -  11 16 mph 1016.4mb 60f 66f
9:20  -   -   -  13 18 mph 1016.4mb 60f 67f
9:10  -   -   -  16 20 mph 1016.3mb 60f 67f
9:00  -   -   -  16 18 mph 1016.1mb 60f 66f
8:50 5ft 11s 5s 13 18 mph 1016mb 60f 67f
8:40 5ft  -  5s 13 18 mph 1016mb 60f 66f
8:30  -   -   -  16 20 mph 1016mb 60f 66f
8:20  -   -   -  18 22 mph 1016mb 60f 67f
8:10  -   -   -  18 22 mph 1015.8mb 60f 67f
8:00  -   -   -  18 25 mph 1015.6mb 60f 67f
7:50 5ft 10s 5s 20 25 mph 1015.5mb 60f 67f
7:40 5ft  -  5s 20 27 mph 1015.4mb 60f 67f
7:30  -   -   -  18 25 mph 1015.3mb 60f 66f
7:20  -   -   -  16 22 mph 1015.1mb 60f 66f
7:10  -   -   -  13 18 mph 1015mb 60f 66f
7:00  -   -   -  16 18 mph 1015mb 60f 66f
6:50 5ft 10s 6s 16 20 mph 1014.8mb 60f 66f
6:40 5ft  -  6s 16 22 mph 1014.8mb 60f 66f
6:30  -   -   -  18 22 mph 1014.5mb 60f 66f
6:20  -   -   -  18 25 mph 1014.8mb 60f 66f
6:10  -   -   -  18 22 mph 1014mb 60f 66f
6:00  -   -   -  18 25 mph 1014mb - 67f
5:50 6ft 10s 6s 20 25 mph 1013.8mb 60f 67f
5:40 6ft  -  6s 22 31 mph 1013.5mb 60f 67f
5:30  -   -   -  22 27 mph 1014mb 60f 67f
5:20  -   -   -  22 27 mph 1013.3mb 60f 68f
5:10  -   -   -  22 29 mph 1013mb 60f 67f
5:00  -   -   -  22 29 mph 1012.9mb 60f 67f
4:50 5.5ft 5s 5s 20 29 mph 1012.8mb 60f 66f
4:40 5.5ft  -  5s 20 25 mph 1013mb 60f 67f
4:30  -   -   -  20 25 mph 1012.9mb 60f 67f
4:20  -   -   -  22 27 mph 1012.6mb 60f 67f
4:10  -   -   -  22 27 mph 1012.5mb 60f 67f
4:00  -   -   -  22 29 mph 1012.4mb 61f 67f
3:50 5ft 11s 5s 25 29 mph 1012.3mb 61f 67f
3:40 5ft  -  5s 25 29 mph 1012.1mb 61f 67f
3:30  -   -   -  22 27 mph 1012mb 61f 67f
3:20  -   -   -  20 25 mph 1012mb 61f 67f
3:10  -   -   -  20 25 mph 1012mb 61f 67f
3:00  -   -   -  18 25 mph 1012mb 61f 67f
2:50 5ft 9s 6s 18 22 mph 1011.9mb 61f 66f
2:40 5ft  -  6s 16 20 mph 1011.8mb 61f 67f
2:30  -   -   -  16 20 mph 1011.6mb 61f 66f
2:20  -   -   -  16 20 mph 1011.6mb 61f 67f
2:10  -   -   -  16 20 mph 1011.5mb 61f 67f
2:00  -   -   -  13 18 mph 1011.5mb 61f 67f
1:50 5ft 10s 6s 13 18 mph 1011.5mb 61f 67f
1:40 5ft  -  6s 11 16 mph 1011.5mb 61f 67f
1:30  -   -   -  11 13 mph 1011.4mb 61f 67f
1:20  -   -   -  11 13 mph 1011.4mb 61f 67f
1:10  -   -   -  11 16 mph 1011.3mb 61f 67f
1:00  -   -   -  11 13 mph 1011.3mb 61f 67f
12:50  -   -   -  11 13 mph 1011.1mb 61f 67f
12:40  -   -   -  11 13 mph 1011mb 61f 66f
12:30  -   -   -   -  mph 1011mb 61f -
12:20  -   -   -  13 16 mph 1010.6mb 61f 66f
12:10  -   -   -  13 16 mph 1010.5mb 61f 65f
12:00  -   -   -  11 13 mph 1010.5mb - 64f
vie 04/28 11:50 5ft 8s 6s 11 13 mph 1010.5mb 61f 63f
11:40 5ft  -  6s 11 16 mph 1010.5mb 61f 63f
11:30  -   -   -  13 16 mph 1010.5mb 61f 63f
11:20  -   -   -  13 16 mph 1010.4mb 61f 64f
11:10  -   -   -  13 16 mph 1010.4mb 61f 63f
11:00  -   -   -  13 16 mph 1010.3mb 61f 63f
10:50 6ft 7s 6s 16 20 mph 1010mb 61f 63f
10:40 6ft  -  6s 16 20 mph 1009.9mb 61f 63f
10:30  -   -   -  16 20 mph 1009.8mb 61f 64f
10:20  -   -   -  16 20 mph 1009.6mb 61f 64f
10:10  -   -   -  18 22 mph 1009.5mb 61f 63f
10:00  -   -   -  18 20 mph 1009.4mb 61f 63f
9:50 6.5ft 6s 6s 18 22 mph 1009.4mb 61f 63f
9:40 6.5ft  -  6s 18 22 mph 1009.3mb 61f 63f
9:30  -   -   -  18 22 mph 1009.3mb 61f 63f
9:20  -   -   -  20 27 mph 1009.1mb 61f 63f
9:10  -   -   -  20 27 mph 1009mb 61f 63f
9:00  -   -   -  20 25 mph 1008.9mb 61f 63f
8:50 7ft 7s 6s 20 27 mph 1008.6mb 61f 64f
8:40 7ft  -  6s 20 27 mph 1008.5mb 61f 64f
8:30  -   -   -  18 20 mph 1008.5mb 61f 64f
8:20  -   -   -  20 25 mph 1008.5mb 61f 65f
8:10  -   -   -  22 29 mph 1008.5mb 61f 65f
8:00  -   -   -  22 29 mph 1008mb 61f 64f
7:50 7.5ft 7s 6s 13 25 mph 1008mb 61f 62f
7:40 7.5ft  -  6s 13 16 mph 1008.1mb 61f 62f
7:30  -   -   -  13 16 mph 1008.1mb 61f 62f
7:20  -   -   -  13 20 mph 1008mb 61f 64f
7:10  -   -   -  16 22 mph 1007.9mb 61f 64f
7:00  -   -   -  20 27 mph 1007.8mb 61f 65f
6:50 7.5ft 7s 6s 20 27 mph 1007.4mb 61f 63f
6:40  -   -   -  22 29 mph 1008mb 61f 66f
6:30  -   -   -  22 29 mph 1007.1mb 61f 65f
6:20  -   -   -  20 29 mph 1007.1mb 61f 65f
6:10  -   -   -  22 31 mph 1007.1mb 61f 65f
6:00  -   -   -  22 31 mph 1007mb 61f 65f
5:50 6ft 7s 6s 25 34 mph 1007.1mb - -
5:40 6ft  -  6s 25 31 mph 1007.3mb 61f 66f
5:30  -   -   -  20 29 mph 1007.3mb 61f 64f
5:20  -   -   -  18 22 mph 1007.5mb 61f 63f
5:10  -   -   -  16 20 mph 1007.6mb 61f 62f
5:00  -   -   -  16 18 mph 1007.6mb 61f 62f
4:50 5.5ft 6s 6s 16 18 mph 1007.5mb 61f 62f
4:40 5.5ft  -  6s 13 18 mph 1007.6mb 61f 62f
4:30  -   -   -  13 16 mph 1007.8mb 61f 62f
4:20  -   -   -  16 20 mph 1007.9mb 61f 62f
4:10  -   -   -  18 22 mph 1007.8mb 62f 62f
4:00  -   -   -  18 25 mph 1007.8mb 62f 62f
3:50 5.5ft 8s 6s 16 20 mph 1008mb 62f 62f
3:40 5.5ft  -  6s 16 18 mph 1008mb 62f 62f
3:30  -   -   -  16 20 mph 1008.3mb 62f 62f
3:20  -   -   -  16 18 mph 1008.4mb 62f 62f
3:10  -   -   -  13 18 mph 1008.6mb 62f 62f
3:00  -   -   -  16 18 mph 1008.8mb 62f 62f
2:50 6ft 9s 6s 13 18 mph 1008.9mb 62f 62f
2:40 6ft  -  6s 13 16 mph 1009mb 62f 62f
2:30  -   -   -  13 16 mph 1009mb 62f 62f
2:20  -   -   -  13 18 mph 1009mb 62f 62f
2:10  -   -   -  11 13 mph 1009.3mb 62f 62f
2:00  -   -   -  9 13 mph 1009.5mb 62f 62f
1:50 6ft 11s 6s 11 13 mph 1009.6mb 62f 62f
1:40 6ft  -  6s 11 13 mph 1009.5mb 62f 62f
1:30  -   -   -  11 13 mph 1009.6mb - 61f
1:20  -   -   -  11 16 mph 1009.8mb 62f 61f
1:10  -   -   -  13 16 mph 1009.9mb 61f 61f
1:00  -   -   -  13 18 mph 1009.6mb 61f 61f
12:50 6ft 10s 6s 13 16 mph 1010mb 61f 61f
12:40  -   -   -  13 16 mph 1010mb 61f 62f
12:30  -   -   -  13 18 mph 1010.7mb 61f 63f
12:20  -   -   -  13 18 mph 1010.3mb 61f 62f
12:10  -   -   -  11 16 mph 1010.4mb 61f 62f
12:00  -   -   -  11 16 mph 1010.5mb 61f 62f
11:50 6ft 11s 6s 13 18 mph 1010.5mb 61f 62f
11:40 6ft  -  6s 16 20 mph 1010.6mb 61f 62f
11:30  -   -   -  16 18 mph 1010.5mb 61f 62f
11:20  -   -   -  13 18 mph 1010.8mb 61f 62f
11:10  -   -   -  13 16 mph 1010.8mb 61f 62f
11:00  -   -   -  16 20 mph 1010.6mb 61f 62f
10:50 6ft 7s 6s 16 20 mph 1010.5mb 61f 62f
10:40 6ft  -  6s 13 18 mph 1010.5mb 61f 62f
10:30  -   -   -  16 20 mph 1010.4mb 61f 61f
10:20  -   -   -  16 20 mph 1010.4mb 61f 61f
10:10  -   -   -  16 20 mph 1010.3mb 61f 61f
10:00  -   -   -  18 22 mph 1010.3mb 61f 61f
9:50 7ft 7s 6s 18 22 mph 1010.1mb 61f 61f
9:40  -   -   -  16 20 mph 1010.4mb 61f 61f
9:30  -   -   -  18 20 mph 1010.1mb 61f 61f
9:20  -   -   -  18 20 mph 1010.4mb 61f 61f
9:10  -   -   -  16 20 mph 1010.3mb 61f 61f
9:00  -   -   -  16 20 mph 1010.1mb 61f 61f
8:50 7ft 7s 6s 16 20 mph 1010.4mb 61f 61f
8:40 7ft  -  6s 16 18 mph 1010.3mb 61f 61f
8:30  -   -   -  16 22 mph 1010.3mb 61f 61f
8:20  -   -   -  16 20 mph 1010mb 61f 61f
8:10  -   -   -  18 20 mph 1010mb 61f 61f
8:00  -   -   -  18 22 mph 1009.9mb 61f 61f
7:50 7ft 8s 6s 18 22 mph 1009.8mb 61f 60f
7:40 7ft  -  6s 20 25 mph 1009.6mb 61f 60f
7:30  -   -   -  20 25 mph 1009.4mb 61f 61f
7:20  -   -   -  18 22 mph 1009.4mb 61f 60f
7:10  -   -   -  18 22 mph 1009.4mb 61f 60f
7:00  -   -   -  18 22 mph 1009mb 61f 60f
6:50 7.5ft 8s 6s 18 22 mph 1008.9mb 61f 60f
6:40  -   -   -  20 25 mph 1008.8mb 61f 60f
6:30  -   -   -  18 22 mph 1008.5mb 61f 60f
6:20  -   -   -  18 22 mph 1008.4mb 61f 60f
6:10  -   -   -  16 20 mph 1008.5mb 61f 60f
6:00  -   -   -  18 20 mph 1008.5mb 61f 60f
5:50 7.5ft 8s 6s 18 25 mph 1008.4mb 61f 61f
5:40 7.5ft  -  6s 18 22 mph 1008mb 61f 61f
5:30  -   -   -  18 22 mph 1008mb 60f 61f
5:20  -   -   -  16 20 mph 1008.1mb 60f 61f
5:10  -   -   -  16 20 mph 1008mb 60f 62f
5:00  -   -   -  18 22 mph 1007.8mb 60f 62f
4:50 7.5ft 8s 7s 18 22 mph 1007.5mb 60f 62f
4:40 7.5ft  -  7s 16 20 mph 1007.5mb 60f 61f
4:30  -   -   -  16 20 mph 1007.5mb 60f 61f
4:20  -   -   -  16 20 mph 1007.5mb 60f 61f
4:10  -   -   -  18 22 mph 1007.6mb 60f 62f
4:00  -   -   -  20 25 mph 1007.5mb 60f 62f
3:50 7ft 9s 6s 20 25 mph 1007.5mb 60f 62f
3:40 7ft  -  6s 20 27 mph 1007.5mb 60f 62f
3:30  -   -   -  18 20 mph 1007.6mb 60f 61f
3:20  -   -   -  18 25 mph 1007.8mb 60f 61f
3:10  -   -   -  20 25 mph 1007.4mb 60f 61f
3:00  -   -   -  18 22 mph 1007.4mb 60f 61f
2:50 7.5ft 6s 6s 18 22 mph 1007.4mb 60f 61f
2:40  -   -   -  18 22 mph 1007.5mb 61f 61f
2:30  -   -   -  18 22 mph 1007.5mb 61f 62f
2:20  -   -   -  18 22 mph 1007.5mb 61f 62f
2:10  -   -   -  18 22 mph 1007.6mb 61f 62f
2:00  -   -   -  20 25 mph 1007.5mb 61f 61f
1:50 7.5ft 8s 6s 20 27 mph 1007.5mb 61f 61f
1:40  -   -   -  22 27 mph 1007.5mb 61f 61f
1:30  -   -   -  22 27 mph 1007.5mb 61f 61f
1:20  -   -   -  20 27 mph 1007.4mb 61f 61f
1:10  -   -   -  20 25 mph 1007.4mb 61f 62f
1:00  -   -   -  18 22 mph 1007.6mb 61f 62f
12:50 7.5ft 6s 6s 16 20 mph 1007.8mb 61f 62f
12:40  -   -   -  13 18 mph 1008mb 61f 62f
12:30  -   -   -  11 16 mph 1008mb 61f 62f
12:20  -   -   -  16 20 mph 1008mb 61f 63f
12:10  -   -   -  18 25 mph 1007.8mb 61f 63f
12:00  -   -   -  18 25 mph 1007.6mb 61f 63f
jue 04/27 11:50 7.5ft 8s 6s 18 22 mph 1007.6mb 61f 63f
11:40 7.5ft  -  6s 13 20 mph 1007.8mb 61f 63f
11:30  -   -   -  7 13 mph 1008mb 61f 63f
11:20  -   -   -  11 18 mph 1008.1mb 61f 63f
11:10  -   -   -  18 22 mph 1008mb 61f 63f
11:00  -   -   -  20 25 mph 1008mb 61f 64f
10:50 7ft 7s 6s 18 25 mph 1008mb 61f 63f
10:40 7ft  -  6s 18 22 mph 1008.1mb 61f 64f
10:30  -   -   -  20 25 mph 1008.1mb 61f 63f
10:20  -   -   -  20 25 mph 1008mb 61f 63f
10:10  -   -   -  22 27 mph 1008mb 61f 64f
10:00  -   -   -  22 29 mph 1007.9mb 61f 64f
9:50 7.5ft 9s 6s 22 29 mph 1007.9mb 61f 64f
9:40 7.5ft  -  6s 22 29 mph 1007.8mb 61f 64f
9:30  -   -   -  22 27 mph 1007.6mb 61f 64f
9:20  -   -   -  22 29 mph 1007.5mb 61f 64f
9:10  -   -   -  25 29 mph 1007.5mb 61f 64f
9:00  -   -   -  25 31 mph 1007.5mb 61f 65f
8:50 8ft 7s 6s 27 34 mph 1007.4mb 61f 65f
8:40 8ft  -  6s 25 29 mph 1007.4mb 61f 65f
8:30  -   -   -  25 31 mph 1007.3mb 61f 65f
8:20  -   -   -  22 31 mph 1007mb 61f 65f
8:10  -   -   -  22 27 mph 1007.1mb 61f 65f
8:00  -   -   -  22 27 mph 1007mb 61f 64f
7:50 8ft 7s 6s 22 29 mph 1006.9mb 61f 65f
7:40 8ft  -  6s 25 31 mph 1006.9mb 61f 65f
7:30  -   -   -  27 34 mph 1007mb 61f 65f
7:20  -   -   -  27 31 mph 1006.6mb 62f 64f
7:10  -   -   -  25 31 mph 1006.8mb 62f 64f
7:00  -   -   -  25 29 mph 1006.9mb 62f 65f
6:40  -   -   -  22 29 mph 1006.8mb 62f 64f
6:30  -   -   -  22 27 mph 1006.9mb 62f 63f
6:20  -   -   -  20 27 mph 1007.3mb 62f 62f
6:10  -   -   -  20 25 mph 1007mb 62f 63f
6:00  -   -   -  22 29 mph 1007mb 62f 64f
5:50 8ft  -  6s 22 29 mph 1007.5mb 62f 65f
5:40 8ft  -  6s 25 36 mph 1007.1mb 62f 65f
5:30  -   -   -  27 34 mph 1007.1mb 62f 66f
5:20  -   -   -  27 36 mph 1007.5mb 62f 67f
5:10  -   -   -  25 36 mph 1007mb 62f 65f
5:00  -   -   -  22 31 mph 1007.3mb 62f 63f
4:50 8ft 8s 6s 13 18 mph 1007.3mb 62f 62f
4:40 8ft  -  6s 11 16 mph 1007.4mb 62f 62f
4:30  -   -   -  11 16 mph 1007.5mb 62f 61f
4:20  -   -   -  7 11 mph 1007.6mb 62f 61f
4:10  -   -   -  11 18 mph 1007.8mb 62f 61f
4:00  -   -   -  13 18 mph 1007.9mb 62f 61f
3:50 7ft 8s 6s 13 18 mph 1008mb 62f 61f
3:40 7ft  -  6s 13 16 mph 1008.1mb 62f 61f
3:30  -   -   -  13 16 mph 1008.4mb 62f 61f
3:20  -   -   -  13 18 mph 1008.5mb 62f 61f
3:10  -   -   -  13 16 mph 1008.5mb 62f 61f
3:00  -   -   -  13 18 mph 1008.5mb 62f 61f
2:50 6.5ft 10s 6s 16 20 mph 1008.8mb 62f 61f
2:40  -   -   -  16 22 mph 1008.9mb 62f 61f
2:30  -   -   -  16 22 mph 1008.9mb 62f 61f
2:20  -   -   -  16 20 mph 1009mb 62f 61f
2:10  -   -   -  16 20 mph 1009mb 62f 61f
2:00  -   -   -  16 20 mph 1008.9mb 62f 62f
1:50 6ft 8s 6s 16 20 mph 1009mb 62f 63f
1:40 6ft  -  6s 16 20 mph 1009mb 62f 64f
1:30  -   -   -  13 18 mph 1009.1mb 62f 63f
1:20  -   -   -  16 20 mph 1009.1mb 62f 63f
1:10  -   -   -  16 20 mph 1009.1mb 62f 63f
1:00  -   -   -  16 22 mph 1009.1mb 62f 62f
12:50 6.5ft 9s 6s 13 18 mph 1009.4mb 62f 62f
12:40 6.5ft  -  6s 11 16 mph 1009.5mb 61f 62f
12:30  -   -   -  11 16 mph 1009.8mb 61f 61f
12:20  -   -   -  13 18 mph 1009.9mb 61f 61f
12:10  -   -   -  13 18 mph 1009.8mb 61f 61f
12:00  -   -   -  16 18 mph 1009.9mb 61f 61f
11:50 6.5ft 6s 6s 16 18 mph 1009.9mb 61f 61f
11:40  -   -   -  13 18 mph 1010mb 61f 61f
11:30  -   -   -  16 20 mph 1010mb 61f 61f
11:20  -   -   -  13 18 mph 1010.1mb 61f 61f
11:10  -   -   -  16 20 mph 1010.3mb 61f 61f
11:00  -   -   -  16 20 mph 1010.5mb 61f 61f
10:50 7ft 7s 6s 16 20 mph 1010.4mb 61f 61f
10:40 7ft  -  6s 16 22 mph 1010.5mb 61f 60f
10:30  -   -   -  16 18 mph 1010.4mb 61f 60f
10:20  -   -   -  16 20 mph 1010.3mb 61f 60f
10:10  -   -   -  16 18 mph 1010.3mb 61f 60f
10:00  -   -   -  16 20 mph 1010.3mb 61f 60f
9:50 6.5ft 7s 6s 18 25 mph 1010.1mb 61f 60f
9:40  -   -   -  18 22 mph 1010mb 61f 60f
9:30  -   -   -  18 22 mph 1010.1mb 61f 60f
9:20  -   -   -  18 22 mph 1010.1mb 61f 60f
9:10  -   -   -  16 22 mph 1010.1mb 61f 60f
9:00  -   -   -  18 20 mph 1010.1mb 61f 60f
8:50 7.5ft 8s 6s 18 22 mph 1010.1mb 61f 60f
8:40 7.5ft  -  6s 18 22 mph 1010.3mb 61f 60f
8:30  -   -   -  20 25 mph 1010.1mb 61f 60f
8:20  -   -   -  20 25 mph 1010mb 61f 60f
8:10  -   -   -  20 22 mph 1010mb 61f 60f
8:00  -   -   -  18 22 mph 1009.9mb 61f 59f
7:50 8.5ft 8s 7s 16 22 mph 1009.9mb 61f 59f
7:40 8.5ft  -  7s 18 25 mph 1009.8mb 61f 59f
7:30  -   -   -  18 22 mph 1009.8mb 61f 59f
7:20  -   -   -  20 25 mph 1009.6mb 61f 59f
7:10  -   -   -  20 27 mph 1009.6mb 61f 59f
7:00  -   -   -  20 25 mph 1009.6mb 61f 59f
6:50 7.5ft 8s 6s 18 22 mph 1009.6mb 61f 59f
6:40 7.5ft  -  6s 16 20 mph 1009.5mb 61f 59f
6:30  -   -   -  16 18 mph 1009.9mb 61f 60f
6:20  -   -   -  16 20 mph 1009.9mb 61f 60f
6:10  -   -   -  16 18 mph 1009.6mb 61f 60f
6:00  -   -   -  16 20 mph 1009.6mb 61f 60f
5:50 8ft 9s 6s 16 20 mph 1009.4mb 61f 60f
5:40 8ft  -  6s 16 18 mph 1009.3mb 61f 60f
5:30  -   -   -  16 20 mph 1009.1mb 61f 60f
5:20  -   -   -  13 18 mph 1009.4mb 61f 60f
5:10  -   -   -  13 18 mph 1009.1mb 61f 60f
5:00  -   -   -  13 16 mph 1009mb 61f 60f
4:50 8ft 8s 6s 11 16 mph 1009.3mb 61f 60f
4:40  -   -   -  11 16 mph 1009.4mb 61f 60f
4:30  -   -   -  13 16 mph 1009.5mb 61f 60f
4:20  -   -   -  13 20 mph 1009.5mb 61f 60f
4:10  -   -   -  16 22 mph 1009.1mb 61f 60f
4:00  -   -   -  13 18 mph 1009.1mb 61f 60f
3:50 8ft 8s 6s 16 20 mph 1009mb 61f 60f
3:40 8ft  -  6s 18 22 mph 1008.9mb 61f 59f
3:30  -   -   -  18 22 mph 1009.3mb 61f 60f
3:20  -   -   -  18 25 mph 1009mb 61f 59f
3:10  -   -   -  18 22 mph 1009mb 61f 59f
3:00  -   -   -  18 22 mph 1009.1mb 61f 59f
2:50 7ft 8s 6s 18 20 mph 1009.4mb 61f 59f
2:40 7ft  -  6s 18 22 mph 1009.5mb 61f 59f
2:30  -   -   -  13 20 mph 1009.5mb 61f 58f
2:20  -   -   -  13 16 mph 1009.8mb 61f 58f
2:10  -   -   -  13 18 mph 1010mb 61f 59f
2:00  -   -   -  16 18 mph 1010.1mb 61f 60f
1:50 8ft 8s 6s 16 18 mph 1009.8mb 61f 60f
1:40 8ft  -  6s 9 16 mph 1009.6mb 62f 59f
1:30  -   -   -  9 11 mph 1010mb 62f 60f
1:20  -   -   -  7 11 mph 1010.1mb 62f 60f
1:10  -   -   -  7 11 mph 1010.1mb 62f 60f
1:00  -   -   -  7 9 mph 1010.1mb 62f 60f
12:50 7ft 7s 6s 7 11 mph 1010.1mb 62f 60f
12:40 7ft  -  6s 9 13 mph 1010mb 62f 60f
12:30  -   -   -  9 13 mph 1010.5mb 62f 61f
12:20  -   -   -  11 13 mph 1010.5mb 62f 61f
12:10  -   -   -  9 13 mph 1010.5mb 62f 62f
12:00  -   -   -  7 11 mph 1010.5mb 62f 62f
mié 04/26 11:50 8ft 8s 6s 11 18 mph 1010.1mb 62f 62f
11:40 8ft  -  6s 13 18 mph 1010.1mb 62f 62f
11:30  -   -   -  13 18 mph 1010.5mb 62f 63f
11:20  -   -   -  13 20 mph 1010.3mb 62f 64f
11:10  -   -   -  11 20 mph 1010.3mb 62f 62f
11:00  -   -   -  2 7 mph 1010.5mb 62f 61f
10:50 8ft 7s 6s 2 7 mph 1010.4mb 62f 62f
10:40  -   -   -  4 13 mph 1010.5mb 62f 62f
10:30  -   -   -  11 16 mph 1010.3mb 62f 63f
10:20  -   -   -  9 13 mph 1010.3mb 62f 63f
10:10  -   -   -  11 18 mph 1010.3mb 62f 63f
10:00  -   -   -  11 16 mph 1010.1mb 62f 62f
9:50 8ft 7s 6s 9 13 mph 1010.3mb 62f 62f
9:40 8ft  -  6s 9 11 mph 1010.3mb 62f 62f
9:30  -   -   -  7 11 mph 1010.1mb 62f 62f
9:20  -   -   -  7 11 mph 1010mb 62f 61f
9:10  -   -   -  7 11 mph 1010mb 62f 61f
9:00  -   -   -  9 11 mph 1010.1mb 62f 61f
8:50 7ft 7s 6s 9 11 mph 1010.1mb - 61f
8:40 7ft  -  6s 11 13 mph 1010.3mb 62f 61f
8:30  -   -   -  11 13 mph 1009.9mb 62f 61f
8:20  -   -   -  11 13 mph 1010mb 62f 61f
8:10  -   -   -  9 13 mph 1009.9mb 62f 61f
8:00  -   -   -  9 13 mph 1010mb 62f 61f
7:50 6ft 7s 6s 11 13 mph 1009.8mb 62f 61f
7:40 6ft  -  6s 7 11 mph 1009.6mb 62f 61f
7:30  -   -   -  2 7 mph 1009.6mb 62f 62f
7:20  -   -   -  2 4 mph 1009.9mb 62f 62f
7:10  -   -   -  4 7 mph 1010mb 62f 62f
7:00  -   -   -  7 11 mph 1009.9mb 62f 62f
6:50 6.5ft 7s 6s 9 11 mph 1009.8mb 62f 61f
6:40  -   -   -  7 11 mph 1010mb 62f 61f
6:30  -   -   -  7 11 mph 1010mb 62f 61f
6:20  -   -   -  9 11 mph 1010mb 62f 61f
6:10  -   -   -  9 13 mph 1010.1mb 62f 61f
6:00  -   -   -  9 13 mph 1010.7mb 62f 61f
5:50 6.5ft 7s 6s 11 16 mph 1010.1mb 62f 60f
5:40 6.5ft  -  6s 13 20 mph 1010.1mb 62f 60f
5:30  -   -   -  13 18 mph 1010.1mb 62f 60f
5:20  -   -   -  11 16 mph 1010.1mb 62f 60f
5:10  -   -   -  13 18 mph 1010.3mb 62f 61f
5:00  -   -   -  16 20 mph 1010.4mb 62f 60f
4:50 6.5ft 8s 6s 16 18 mph 1010.5mb 62f 60f
4:40  -   -   -  16 18 mph 1010.6mb 62f 60f
4:30  -   -   -  18 20 mph 1010.9mb 62f 60f
4:20  -   -   -  13 20 mph 1010.6mb 62f 61f
4:10  -   -   -  13 18 mph 1011mb 62f 61f
4:00  -   -   -  13 16 mph 1010.9mb 62f 62f
3:50 6ft 7s 6s 11 16 mph 1010.9mb 62f 62f
3:40 6ft  -  6s 11 13 mph 1010.9mb 62f 62f
3:30  -   -   -  9 13 mph 1011mb 62f 62f
3:20  -   -   -  9 11 mph 1011.1mb 62f 62f
3:10  -   -   -  9 11 mph 1011.4mb 62f 62f
3:00  -   -   -  4 7 mph 1011.6mb 62f 62f
2:50 6ft 7s 6s 4
mph
1011.6mb 62f 61f